createdAt,value
2017-12-24T00:01:41.465Z,2.50
2017-12-24T00:04:09.948Z,3.37
2017-12-24T00:06:38.430Z,3.08
2017-12-24T00:09:06.904Z,2.90
2017-12-24T00:11:34.607Z,2.70
2017-12-24T00:14:02.318Z,3.35
2017-12-24T00:16:30.041Z,3.60
2017-12-24T00:18:57.754Z,3.37
2017-12-24T00:21:25.459Z,3.35
2017-12-24T00:23:53.170Z,3.53
2017-12-24T00:26:20.881Z,3.17
2017-12-24T00:28:48.594Z,3.35
2017-12-24T00:31:16.302Z,3.42
2017-12-24T00:33:44.777Z,2.78
2017-12-24T00:36:13.245Z,3.30
2017-12-24T00:38:40.958Z,2.72
2017-12-24T00:41:08.662Z,2.50
2017-12-24T00:43:36.373Z,2.50
2017-12-24T00:46:04.086Z,2.60
2017-12-24T00:48:31.795Z,2.50
2017-12-24T00:50:59.507Z,1.80
2017-12-24T00:53:27.214Z,2.20
2017-12-24T00:55:54.936Z,2.20
2017-12-24T00:58:22.646Z,2.47
2017-12-24T01:00:50.375Z,1.80
2017-12-24T01:03:18.082Z,1.73
2017-12-24T01:05:45.793Z,2.10
2017-12-24T01:08:13.505Z,2.03
2017-12-24T01:10:41.214Z,1.55
2017-12-24T01:13:08.922Z,1.75
2017-12-24T01:15:36.634Z,2.30
2017-12-24T01:18:04.353Z,1.90
2017-12-24T01:20:32.062Z,1.92
2017-12-24T01:22:59.766Z,1.80
2017-12-24T01:25:28.238Z,1.90
2017-12-24T01:27:56.706Z,2.00
2017-12-24T01:30:24.418Z,1.85
2017-12-24T01:32:52.129Z,2.05
2017-12-24T01:35:19.837Z,2.28
2017-12-24T01:37:47.553Z,2.10
2017-12-24T01:40:15.263Z,2.22
2017-12-24T01:42:42.978Z,1.77
2017-12-24T01:45:10.695Z,1.98
2017-12-24T01:47:50.275Z,1.70
2017-12-24T01:50:17.983Z,1.60
2017-12-24T01:52:46.483Z,1.58
2017-12-24T01:55:14.195Z,1.40
2017-12-24T01:57:41.910Z,1.50
2017-12-24T02:00:09.652Z,1.30
2017-12-24T02:02:38.126Z,1.30
2017-12-24T02:05:06.605Z,1.20
2017-12-24T02:07:35.090Z,1.20
2017-12-24T02:10:03.635Z,1.30
2017-12-24T02:12:31.355Z,1.17
2017-12-24T02:14:59.835Z,1.30
2017-12-24T02:17:28.324Z,1.30
2017-12-24T02:19:56.037Z,1.50
2017-12-24T02:22:23.752Z,1.50
2017-12-24T02:24:51.458Z,1.27
2017-12-24T02:27:19.174Z,1.52
2017-12-24T02:29:47.658Z,1.75
2017-12-24T02:32:15.368Z,1.55
2017-12-24T02:34:43.082Z,1.73
2017-12-24T02:37:11.547Z,2.70
2017-12-24T02:39:40.158Z,2.08
2017-12-24T02:42:07.864Z,2.00
2017-12-24T02:44:36.333Z,1.90
2017-12-24T02:47:04.042Z,1.83
2017-12-24T02:49:32.522Z,1.62
2017-12-24T02:52:00.994Z,1.80
2017-12-24T02:54:28.702Z,1.95
2017-12-24T02:56:56.413Z,1.50
2017-12-24T02:59:24.133Z,1.60
2017-12-24T03:01:51.854Z,1.60
2017-12-24T03:04:19.566Z,1.90
2017-12-24T03:06:47.282Z,1.70
2017-12-24T03:09:15.002Z,1.60
2017-12-24T03:11:42.706Z,1.70
2017-12-24T03:14:10.418Z,1.40
2017-12-24T03:16:38.133Z,1.45
2017-12-24T03:19:05.845Z,1.83
2017-12-24T03:21:33.554Z,1.80
2017-12-24T03:24:01.278Z,1.90
2017-12-24T03:26:28.981Z,1.70
2017-12-24T03:28:56.682Z,1.75
2017-12-24T03:31:24.393Z,1.58
2017-12-24T03:33:52.106Z,1.50
2017-12-24T03:36:19.805Z,1.70
2017-12-24T03:38:47.513Z,1.87
2017-12-24T03:41:15.987Z,1.52
2017-12-24T03:43:43.701Z,1.50
2017-12-24T03:46:11.408Z,1.70
2017-12-24T03:48:39.115Z,1.40
2017-12-24T03:51:06.835Z,1.25
2017-12-24T03:53:34.598Z,1.52
2017-12-24T03:56:02.322Z,1.50
2017-12-24T03:58:30.040Z,1.77
2017-12-24T04:00:58.513Z,1.35
2017-12-24T04:03:26.247Z,1.58
2017-12-24T04:05:53.954Z,1.60
2017-12-24T04:08:22.421Z,1.83
2017-12-24T04:10:50.130Z,2.60
2017-12-24T04:13:17.838Z,1.67
2017-12-24T04:15:45.566Z,1.60
2017-12-24T04:18:13.274Z,1.90
2017-12-24T04:20:40.974Z,1.75
2017-12-24T04:23:09.579Z,1.85
2017-12-24T04:25:37.291Z,1.83
2017-12-24T04:28:05.002Z,1.80
2017-12-24T04:30:32.709Z,1.50
2017-12-24T04:33:00.425Z,1.90
2017-12-24T04:35:28.135Z,1.85
2017-12-24T04:37:55.838Z,2.37
2017-12-24T04:40:23.546Z,2.03
2017-12-24T04:42:51.273Z,1.65
2017-12-24T04:45:18.986Z,2.20
2017-12-24T04:47:46.689Z,1.87
2017-12-24T04:50:14.398Z,2.35
2017-12-24T04:52:42.106Z,2.70
2017-12-24T04:55:10.577Z,2.30
2017-12-24T04:57:38.289Z,2.53
2017-12-24T05:00:06.054Z,2.37
2017-12-24T05:02:33.755Z,2.15
2017-12-24T05:05:01.466Z,2.30
2017-12-24T05:07:29.182Z,2.58
2017-12-24T05:09:56.894Z,2.10
2017-12-24T05:12:24.601Z,2.75
2017-12-24T05:14:52.318Z,2.55
2017-12-24T05:17:20.033Z,2.37
2017-12-24T05:19:47.751Z,2.53
2017-12-24T05:22:15.474Z,2.40
2017-12-24T05:24:43.178Z,2.20
2017-12-24T05:27:11.949Z,2.95
2017-12-24T05:29:42.898Z,2.30
2017-12-24T05:32:10.734Z,2.45
2017-12-24T05:34:38.445Z,2.03
2017-12-24T05:37:06.145Z,2.42
2017-12-24T05:39:33.858Z,2.30
2017-12-24T05:42:01.566Z,2.28
2017-12-24T05:44:29.334Z,2.15
2017-12-24T05:46:57.030Z,2.83
2017-12-24T05:49:25.510Z,1.80
2017-12-24T05:51:53.981Z,2.20
2017-12-24T05:54:21.685Z,2.58
2017-12-24T05:56:49.397Z,2.35
2017-12-24T05:59:17.101Z,2.10
2017-12-24T06:01:44.805Z,2.22
2017-12-24T06:04:12.514Z,2.75
2017-12-24T06:06:40.986Z,2.37
2017-12-24T06:09:09.466Z,2.47
2017-12-24T06:11:37.942Z,2.15
2017-12-24T06:14:06.809Z,2.20
2017-12-24T06:16:34.547Z,2.35
2017-12-24T06:19:02.257Z,2.15
2017-12-24T06:21:29.966Z,2.33
2017-12-24T06:23:57.690Z,2.60
2017-12-24T06:26:25.407Z,2.45
2017-12-24T06:28:53.118Z,2.70
2017-12-24T06:31:20.828Z,2.37
2017-12-24T06:33:48.532Z,2.15
2017-12-24T06:36:16.254Z,2.60
2017-12-24T06:38:43.961Z,2.55
2017-12-24T06:41:11.734Z,2.75
2017-12-24T06:43:39.450Z,2.40
2017-12-24T06:46:07.158Z,3.00
2017-12-24T06:48:34.876Z,2.22
2017-12-24T06:51:02.588Z,3.03
2017-12-24T06:53:30.297Z,2.83
2017-12-24T06:55:58.024Z,2.75
2017-12-24T06:58:26.507Z,3.33
2017-12-24T07:00:54.985Z,2.85
2017-12-24T07:03:23.470Z,2.65
2017-12-24T07:05:51.959Z,2.33
2017-12-24T07:08:20.437Z,2.50
2017-12-24T07:10:48.927Z,2.55
2017-12-24T07:13:17.414Z,2.60
2017-12-24T07:15:45.134Z,2.50
2017-12-24T07:18:12.850Z,3.25
2017-12-24T07:20:40.574Z,2.72
2017-12-24T07:23:08.292Z,2.53
2017-12-24T07:25:36.030Z,2.75
2017-12-24T07:28:04.510Z,2.85
2017-12-24T07:30:32.998Z,2.20
2017-12-24T07:33:00.713Z,2.65
2017-12-24T07:35:28.436Z,2.42
2017-12-24T07:37:56.145Z,2.65
2017-12-24T07:40:23.857Z,2.40
2017-12-24T07:42:51.558Z,2.40
2017-12-24T07:45:19.249Z,2.75
2017-12-24T07:47:46.954Z,2.15
2017-12-24T07:50:14.662Z,1.98
2017-12-24T07:52:42.362Z,2.40
2017-12-24T07:55:10.842Z,2.10
2017-12-24T07:57:39.323Z,1.70
2017-12-24T08:00:07.794Z,2.28
2017-12-24T08:02:35.493Z,2.20
2017-12-24T08:05:03.623Z,1.70
2017-12-24T08:07:32.575Z,2.05
2017-12-24T08:10:00.352Z,2.10
2017-12-24T08:12:28.058Z,2.75
2017-12-24T08:14:56.524Z,1.92
2017-12-24T08:17:24.229Z,1.95
2017-12-24T08:19:51.922Z,1.70
2017-12-24T08:22:19.647Z,1.65
2017-12-24T08:24:47.359Z,2.20
2017-12-24T08:27:15.070Z,2.20
2017-12-24T08:29:43.539Z,2.10
2017-12-24T08:32:12.006Z,1.70
2017-12-24T08:34:39.715Z,1.60
2017-12-24T08:37:07.420Z,2.00
2017-12-24T08:39:35.122Z,2.12
2017-12-24T08:42:03.876Z,2.03
2017-12-24T08:44:31.594Z,1.80
2017-12-24T08:47:07.833Z,2.30
2017-12-24T08:49:35.581Z,1.80
2017-12-24T08:52:04.910Z,2.10
2017-12-24T08:54:32.627Z,1.90
2017-12-24T08:57:00.346Z,1.62
2017-12-24T08:59:28.062Z,1.87
2017-12-24T09:01:55.777Z,1.58
2017-12-24T09:04:23.493Z,1.70
2017-12-24T09:06:51.249Z,1.67
2017-12-24T09:09:19.022Z,1.45
2017-12-24T09:11:46.741Z,1.75
2017-12-24T09:14:15.302Z,1.83
2017-12-24T09:16:43.774Z,1.90
2017-12-24T09:19:12.261Z,1.65
2017-12-24T09:21:40.754Z,1.67
2017-12-24T09:24:08.563Z,1.70
2017-12-24T09:26:36.273Z,1.40
2017-12-24T09:29:04.766Z,1.60
2017-12-24T09:31:32.478Z,1.70
2017-12-24T09:34:00.419Z,1.58
2017-12-24T09:36:28.171Z,1.62
2017-12-24T09:38:55.889Z,1.42
2017-12-24T09:41:23.904Z,1.35
2017-12-24T09:43:51.673Z,1.40
2017-12-24T09:46:19.386Z,1.20
2017-12-24T09:48:51.018Z,1.50
2017-12-24T09:51:19.014Z,1.60
2017-12-24T09:53:46.747Z,1.60
2017-12-24T09:56:14.492Z,1.60
2017-12-24T09:58:42.224Z,1.50
2017-12-24T10:01:10.722Z,1.85
2017-12-24T10:03:39.193Z,1.70
2017-12-24T10:06:08.626Z,1.67
2017-12-24T10:08:36.342Z,2.20
2017-12-24T10:11:06.294Z,1.50
2017-12-24T10:13:34.012Z,1.55
2017-12-24T10:16:01.734Z,1.85
2017-12-24T10:18:29.469Z,1.70
2017-12-24T10:20:57.948Z,1.60
2017-12-24T10:23:26.429Z,1.60
2017-12-24T10:25:54.905Z,1.62
2017-12-24T10:28:23.421Z,1.40
2017-12-24T10:30:51.129Z,1.45
2017-12-24T10:33:18.850Z,1.52
2017-12-24T10:35:46.568Z,1.87
2017-12-24T10:38:14.293Z,1.80
2017-12-24T10:40:42.013Z,1.67
2017-12-24T10:43:10.506Z,1.83
2017-12-24T10:45:38.987Z,1.40
2017-12-24T10:48:07.517Z,1.70
2017-12-24T10:50:35.230Z,1.67
2017-12-24T10:53:03.714Z,1.40
2017-12-24T10:55:32.191Z,1.80
2017-12-24T10:58:00.662Z,1.60
2017-12-24T11:00:29.147Z,1.40
2017-12-24T11:02:57.620Z,1.60
2017-12-24T11:05:25.327Z,1.40
2017-12-24T11:07:53.049Z,1.30
2017-12-24T11:10:20.766Z,1.42
2017-12-24T11:12:49.151Z,2.85
2017-12-24T11:15:18.257Z,1.80
2017-12-24T11:17:47.193Z,1.60
2017-12-24T11:20:17.409Z,1.62
2017-12-24T11:22:47.499Z,1.50
2017-12-24T11:25:15.969Z,1.60
2017-12-24T11:27:46.421Z,1.50
2017-12-24T11:30:16.894Z,2.22
2017-12-24T11:32:47.543Z,1.90
2017-12-24T11:35:17.645Z,2.20
2017-12-24T11:37:46.188Z,5.50
2017-12-24T11:40:16.331Z,2.78
2017-12-24T11:42:44.057Z,2.50
2017-12-24T11:45:11.749Z,1.50
2017-12-24T11:47:40.286Z,1.70
2017-12-24T11:50:08.026Z,1.50
2017-12-24T11:52:35.729Z,1.73
2017-12-24T11:55:03.453Z,1.62
2017-12-24T11:57:31.162Z,1.67
2017-12-24T11:59:58.866Z,1.85
2017-12-24T12:02:27.335Z,1.80
2017-12-24T12:04:55.814Z,1.80
2017-12-24T12:07:24.299Z,1.85
2017-12-24T12:09:52.790Z,1.80
2017-12-24T12:12:21.254Z,1.45
2017-12-24T12:14:48.967Z,1.70
2017-12-24T12:17:16.664Z,1.40
2017-12-24T12:19:44.370Z,1.55
2017-12-24T12:22:12.075Z,1.70
2017-12-24T12:24:39.769Z,1.48
2017-12-24T12:27:07.474Z,2.72
2017-12-24T12:29:35.174Z,1.50
2017-12-24T12:32:02.865Z,1.40
2017-12-24T12:34:31.335Z,1.40
2017-12-24T12:36:59.215Z,1.50
2017-12-24T12:39:27.689Z,1.40
2017-12-24T12:41:55.397Z,1.27
2017-12-24T12:44:23.116Z,1.20
2017-12-24T12:46:50.833Z,1.70
2017-12-24T12:49:19.307Z,1.23
2017-12-24T12:51:47.018Z,1.40
2017-12-24T12:54:14.745Z,1.50
2017-12-24T12:56:42.526Z,1.20
2017-12-24T12:59:10.246Z,1.23
2017-12-24T13:01:37.961Z,1.60
2017-12-24T13:04:05.677Z,1.30
2017-12-24T13:06:33.455Z,1.27
2017-12-24T13:09:01.167Z,1.90
2017-12-24T13:11:28.890Z,1.95
2017-12-24T13:13:56.649Z,1.60
2017-12-24T13:16:24.369Z,1.80
2017-12-24T13:18:52.091Z,1.50
2017-12-24T13:21:19.803Z,1.40
2017-12-24T13:23:48.276Z,1.40
2017-12-24T13:26:16.009Z,1.40
2017-12-24T13:28:43.721Z,1.80
2017-12-24T13:31:12.213Z,1.60
2017-12-24T13:33:39.958Z,1.80
2017-12-24T13:36:08.437Z,1.45
2017-12-24T13:38:36.157Z,1.85
2017-12-24T13:41:03.869Z,1.98
2017-12-24T13:43:32.338Z,1.52
2017-12-24T13:46:00.284Z,1.80
2017-12-24T13:48:27.994Z,1.70
2017-12-24T13:50:56.736Z,2.97
2017-12-24T13:53:25.275Z,4.43
2017-12-24T13:55:52.990Z,1.70
2017-12-24T13:58:21.881Z,1.85
2017-12-24T14:00:49.594Z,2.08
2017-12-24T14:03:17.322Z,1.70
2017-12-24T14:05:45.043Z,1.92
2017-12-24T14:08:12.753Z,1.92
2017-12-24T14:10:40.484Z,2.00
2017-12-24T14:13:08.245Z,2.20
2017-12-24T14:15:35.997Z,1.80
2017-12-24T14:18:03.722Z,1.83
2017-12-24T14:20:32.201Z,2.00
2017-12-24T14:23:00.680Z,1.60
2017-12-24T14:25:28.389Z,1.65
2017-12-24T14:27:56.122Z,2.10
2017-12-24T14:30:24.609Z,1.80
2017-12-24T14:32:55.392Z,1.65
2017-12-24T14:35:23.250Z,2.10
2017-12-24T14:37:50.977Z,2.60
2017-12-24T14:40:21.973Z,3.55
2017-12-24T14:46:26.632Z,2.30
2017-12-24T14:48:54.354Z,2.65
2017-12-24T14:51:23.316Z,1.98
2017-12-24T14:53:51.933Z,1.80
2017-12-24T14:56:22.683Z,2.10
2017-12-24T14:58:52.660Z,2.00
2017-12-24T15:01:23.937Z,2.42
2017-12-24T15:03:54.404Z,1.80
2017-12-24T15:06:24.656Z,2.00
2017-12-24T15:08:55.861Z,1.70
2017-12-24T15:11:26.822Z,1.60
2017-12-24T15:13:57.478Z,1.60
2017-12-24T15:16:29.445Z,3.10
2017-12-24T15:19:03.189Z,1.83
2017-12-24T15:21:35.178Z,1.73
2017-12-24T15:24:06.572Z,1.52
2017-12-24T15:26:35.414Z,1.87
2017-12-24T15:29:03.141Z,1.95
2017-12-24T15:31:30.856Z,1.77
2017-12-24T15:33:59.698Z,2.00
2017-12-24T15:36:27.421Z,1.60
2017-12-24T15:38:55.898Z,1.50
2017-12-24T15:41:24.377Z,2.00
2017-12-24T15:43:52.072Z,1.95
2017-12-24T15:46:19.799Z,1.60
2017-12-24T15:48:47.504Z,1.80
2017-12-24T15:51:15.200Z,1.90
2017-12-24T15:53:42.914Z,1.75
2017-12-24T15:56:11.405Z,2.10
2017-12-24T15:58:39.110Z,2.00
2017-12-24T16:01:06.823Z,1.90
2017-12-24T16:03:34.526Z,2.10
2017-12-24T16:06:02.238Z,2.30
2017-12-24T16:08:30.718Z,2.22
2017-12-24T16:10:59.265Z,2.35
2017-12-24T16:13:26.965Z,2.30
2017-12-24T16:15:55.428Z,2.50
2017-12-24T16:18:24.233Z,2.28
2017-12-24T16:20:52.715Z,2.37
2017-12-24T16:23:20.433Z,2.35
2017-12-24T16:25:48.173Z,2.30
2017-12-24T16:28:15.862Z,2.00
2017-12-24T16:30:43.564Z,2.40
2017-12-24T16:33:11.286Z,2.45
2017-12-24T16:35:38.985Z,2.25
2017-12-24T16:38:06.690Z,2.50
2017-12-24T16:40:34.413Z,2.42
2017-12-24T16:43:02.237Z,2.60
2017-12-24T16:45:29.948Z,2.40
2017-12-24T16:47:57.663Z,2.20
2017-12-24T16:50:25.390Z,2.67
2017-12-24T16:52:53.869Z,1.98
2017-12-24T16:55:22.413Z,2.17
2017-12-24T16:57:50.279Z,2.42
2017-12-24T17:00:17.998Z,1.80
2017-12-24T17:02:45.702Z,2.40
2017-12-24T17:05:13.421Z,2.37
2017-12-24T17:07:41.898Z,2.17
2017-12-24T17:10:10.381Z,2.03
2017-12-24T17:12:38.862Z,1.70
2017-12-24T17:15:07.345Z,2.12
2017-12-24T17:17:35.828Z,2.28
2017-12-24T17:20:04.313Z,2.37
2017-12-24T17:22:32.035Z,3.10
2017-12-24T17:24:59.776Z,2.12
2017-12-24T17:27:27.490Z,2.97
2017-12-24T17:29:55.970Z,2.75
2017-12-24T17:32:24.450Z,2.80
2017-12-24T17:34:52.195Z,2.35
2017-12-24T17:37:19.908Z,2.72
2017-12-24T17:39:47.621Z,2.50
2017-12-24T17:42:15.352Z,2.30
2017-12-24T17:44:43.080Z,2.40
2017-12-24T17:47:11.554Z,2.35
2017-12-24T17:49:40.087Z,2.40
2017-12-24T17:52:07.810Z,2.40
2017-12-24T17:54:36.294Z,2.33
2017-12-24T17:57:04.773Z,2.65
2017-12-24T17:59:32.491Z,3.10
2017-12-24T18:02:00.215Z,2.60
2017-12-24T18:04:27.930Z,2.35
2017-12-24T18:06:55.648Z,3.35
2017-12-24T18:09:23.354Z,2.60
2017-12-24T18:11:51.074Z,2.50
2017-12-24T18:14:18.786Z,2.65
2017-12-24T18:16:46.499Z,2.95
2017-12-24T18:19:14.210Z,2.60
2017-12-24T18:21:41.917Z,2.35
2017-12-24T18:24:10.389Z,2.60
2017-12-24T18:26:38.869Z,2.40
2017-12-24T18:29:07.356Z,2.75
2017-12-24T18:31:35.838Z,2.45
2017-12-24T18:34:04.334Z,2.30
2017-12-24T18:36:32.046Z,2.90
2017-12-24T18:38:59.761Z,2.80
2017-12-24T18:41:27.473Z,2.78
2017-12-24T18:43:55.171Z,2.78
2017-12-24T18:46:22.910Z,2.80
2017-12-24T18:48:50.606Z,2.28
2017-12-24T18:51:19.070Z,2.65
2017-12-24T18:53:46.773Z,2.42
2017-12-24T18:56:14.469Z,2.50
2017-12-24T18:58:42.171Z,3.00
2017-12-24T19:01:10.712Z,3.42
2017-12-24T19:03:38.417Z,2.83
2017-12-24T19:06:06.886Z,2.97
2017-12-24T19:08:34.673Z,2.30
2017-12-24T19:11:03.137Z,2.90
2017-12-24T19:13:31.606Z,2.60
2017-12-24T19:15:59.329Z,2.83
2017-12-24T19:18:27.030Z,3.47
2017-12-24T19:20:54.733Z,2.20
2017-12-24T19:23:22.486Z,1.90
2017-12-24T19:25:50.953Z,2.17
2017-12-24T19:28:19.425Z,2.05
2017-12-24T19:30:47.133Z,1.80
2017-12-24T19:33:14.834Z,1.67
2017-12-24T19:35:42.530Z,2.00
2017-12-24T19:38:10.993Z,1.52
2017-12-24T19:40:38.698Z,2.30
2017-12-24T19:43:06.399Z,1.70
2017-12-24T19:45:34.101Z,1.90
2017-12-24T19:48:02.561Z,2.10
2017-12-24T19:50:30.262Z,1.50
2017-12-24T19:52:57.973Z,1.50
2017-12-24T19:55:25.669Z,1.73
2017-12-24T19:57:53.365Z,1.80
2017-12-24T20:00:21.062Z,1.83
2017-12-24T20:02:48.772Z,3.05
2017-12-24T20:05:17.230Z,3.20
2017-12-24T20:07:44.930Z,2.65
2017-12-24T20:10:12.631Z,3.00
2017-12-24T20:12:40.325Z,2.90
2017-12-24T20:15:08.025Z,3.15
2017-12-24T20:17:35.754Z,3.47
2017-12-24T20:20:03.481Z,3.42
2017-12-24T20:22:31.175Z,3.17
2017-12-24T20:24:58.882Z,3.12
2017-12-24T20:27:26.574Z,3.53
2017-12-24T20:29:54.269Z,3.60
2017-12-24T20:32:21.966Z,3.95
2017-12-24T20:34:49.697Z,3.22
2017-12-24T20:37:17.402Z,3.92
2017-12-24T20:39:45.102Z,4.57
2017-12-24T20:42:12.806Z,3.97
2017-12-24T20:44:41.266Z,4.20
2017-12-24T20:47:08.983Z,3.10
2017-12-24T20:49:36.677Z,2.90
2017-12-24T20:52:04.390Z,3.10
2017-12-24T20:54:32.094Z,5.10
2017-12-24T20:56:59.797Z,9.02
2017-12-24T20:59:28.264Z,4.25
2017-12-24T21:01:55.962Z,4.95
2017-12-24T21:04:23.663Z,4.60
2017-12-24T21:06:51.361Z,7.40
2017-12-24T21:09:19.063Z,5.80
2017-12-24T21:11:46.775Z,12.50
2017-12-24T21:14:14.477Z,15.45
2017-12-24T21:16:42.175Z,2.60
2017-12-24T21:19:09.865Z,4.50
2017-12-24T21:21:37.561Z,2.05
2017-12-24T21:24:06.022Z,2.40
2017-12-24T21:26:33.721Z,3.00
2017-12-24T21:29:01.426Z,2.30
2017-12-24T21:31:29.122Z,2.70
2017-12-24T21:33:57.587Z,2.30
2017-12-24T21:36:25.286Z,2.53
2017-12-24T21:38:52.981Z,2.95
2017-12-24T21:41:20.678Z,2.58
2017-12-24T21:43:48.369Z,3.05
2017-12-24T21:46:16.826Z,3.20
2017-12-24T21:48:44.518Z,4.00
2017-12-24T21:51:12.228Z,2.87
2017-12-24T21:53:39.921Z,2.90
2017-12-24T21:56:08.390Z,2.90
2017-12-24T21:58:36.089Z,3.17
2017-12-24T22:01:03.801Z,3.30
2017-12-24T22:03:31.494Z,3.25
2017-12-24T22:05:59.190Z,2.15
2017-12-24T22:08:26.889Z,2.30
2017-12-24T22:10:54.592Z,2.25
2017-12-24T22:13:23.062Z,2.75
2017-12-24T22:15:50.758Z,2.45
2017-12-24T22:18:18.461Z,2.85
2017-12-24T22:20:46.159Z,3.08
2017-12-24T22:23:14.618Z,3.03
2017-12-24T22:25:42.319Z,3.30
2017-12-24T22:28:10.787Z,2.80
2017-12-24T22:30:39.331Z,2.90
2017-12-24T22:33:07.026Z,2.70
2017-12-24T22:35:34.722Z,2.50
2017-12-24T22:38:02.445Z,1.60
2017-12-24T22:40:30.145Z,1.65
2017-12-24T22:42:57.857Z,3.05
2017-12-24T22:45:25.566Z,2.10
2017-12-24T22:47:54.039Z,2.30
2017-12-24T22:50:22.530Z,1.87
2017-12-24T22:52:51.009Z,2.00
2017-12-24T22:55:19.486Z,1.83
2017-12-24T22:57:47.974Z,1.75
2017-12-24T23:00:15.686Z,2.00
2017-12-24T23:02:43.389Z,1.60
2017-12-24T23:05:11.862Z,1.95
2017-12-24T23:07:39.565Z,2.03
2017-12-24T23:10:07.283Z,2.33
2017-12-24T23:12:35.010Z,2.33
2017-12-24T23:15:02.962Z,2.35
2017-12-24T23:17:31.290Z,2.40
2017-12-24T23:20:00.160Z,2.10
2017-12-24T23:22:28.027Z,2.10
2017-12-24T23:24:55.894Z,1.65
2017-12-24T23:27:23.598Z,2.12
2017-12-24T23:29:52.067Z,1.75
2017-12-24T23:32:19.769Z,1.60
2017-12-24T23:34:47.483Z,1.40
2017-12-24T23:37:15.190Z,1.35
2017-12-24T23:39:42.905Z,1.40
2017-12-24T23:42:10.630Z,1.52
2017-12-24T23:44:38.338Z,1.50
2017-12-24T23:47:06.045Z,1.17
2017-12-24T23:49:33.758Z,1.25
2017-12-24T23:52:01.465Z,1.12
2017-12-24T23:54:29.942Z,1.30
2017-12-24T23:56:58.413Z,1.30
2017-12-24T23:59:26.889Z,1.40
